Shantou, China
Current Conditions -  °F | °C
As of 12:00 PM on Monday 20 Oct 2014 (Local Time) from ZGOW Reporting Station
Clear Clear  
Wind Chill: 84°   Ceiling: Unl
Heat Index: 87°   Visibility: 6mi
Dew Point: 68°   Wind: 4mph
Humidity: 58%   Direction: 150°SSE
Pressure: 29.97"   Gusts: NA
Location:  23.37°N, 116.67°E
Report Text: ZGOW 200400Z 15002MPS 080V200 CAVOK 29/20 Q1015 NOSIG
Loading
Personal Weather Stations






























Interactive Weather Map
Tropical Storm Tracking
New forecast layout! Learn more

10-Day Weather Forecast

Advertisements
Track Severe Weather on mobile